createdAt,value
2022-10-28T00:01:18.716Z,45.93
2022-10-28T00:03:46.885Z,45.22
2022-10-28T00:06:14.515Z,37.15
2022-10-28T00:08:37.203Z,33.28
2022-10-28T00:11:15.045Z,39.65
2022-10-28T00:13:37.660Z,35.55
2022-10-28T00:16:10.354Z,36.60
2022-10-28T00:18:32.736Z,37.93
2022-10-28T00:21:02.007Z,38.50
2022-10-28T00:23:24.360Z,40.58
2022-10-28T00:25:46.728Z,43.00
2022-10-28T00:28:09.124Z,36.87
2022-10-28T00:32:58.811Z,44.08
2022-10-28T00:35:21.264Z,43.40
2022-10-28T00:37:43.674Z,35.50
2022-10-28T00:40:06.484Z,41.27
2022-10-28T00:42:28.869Z,44.08
2022-10-28T00:44:58.976Z,42.57
2022-10-28T00:47:52.729Z,41.53
2022-10-28T00:50:33.567Z,39.05
2022-10-28T00:53:19.214Z,43.08
2022-10-28T00:55:41.567Z,36.97
2022-10-28T00:58:04.711Z,39.53
2022-10-28T01:00:27.499Z,35.53
2022-10-28T01:02:50.128Z,40.20
2022-10-28T01:05:14.539Z,33.70
2022-10-28T01:07:36.948Z,34.63
2022-10-28T01:09:59.267Z,40.13
2022-10-28T01:12:52.492Z,41.90
2022-10-28T01:15:49.702Z,35.58
2022-10-28T01:18:25.613Z,38.85
2022-10-28T01:21:37.036Z,30.70
2022-10-28T01:24:40.581Z,32.42
2022-10-28T01:27:11.886Z,37.30
2022-10-28T01:30:08.617Z,53.25
2022-10-28T01:33:03.832Z,36.10
2022-10-28T01:35:47.276Z,38.95
2022-10-28T01:38:28.796Z,36.67
2022-10-28T01:41:33.885Z,42.33
2022-10-28T01:44:13.459Z,39.20
2022-10-28T01:46:43.872Z,51.08
2022-10-28T01:49:11.169Z,79.55
2022-10-28T01:51:59.217Z,49.92
2022-10-28T01:54:24.847Z,60.25
2022-10-28T01:56:47.758Z,75.95
2022-10-28T01:59:22.585Z,50.08
2022-10-28T02:01:45.089Z,87.20
2022-10-28T02:04:07.702Z,72.55
2022-10-28T02:06:31.401Z,56.57
2022-10-28T02:09:24.629Z,96.93
2022-10-28T02:12:10.267Z,54.53
2022-10-28T02:15:09.768Z,60.72
2022-10-28T02:17:58.999Z,47.47
2022-10-28T02:20:38.666Z,39.20
2022-10-28T02:23:24.771Z,48.70
2022-10-28T02:26:01.405Z,50.22
2022-10-28T02:28:58.684Z,55.75
2022-10-28T02:31:41.877Z,39.53
2022-10-28T02:34:12.532Z,46.33
2022-10-28T02:36:37.630Z,60.38
2022-10-28T02:39:00.112Z,69.72
2022-10-28T02:41:29.249Z,61.95
2022-10-28T02:43:57.681Z,40.50
2022-10-28T02:46:20.042Z,37.90
2022-10-28T02:48:51.103Z,43.70
2022-10-28T02:51:22.785Z,36.70
2022-10-28T02:54:11.310Z,45.55
2022-10-28T02:56:38.103Z,55.22
2022-10-28T02:59:00.470Z,42.45
2022-10-28T03:01:22.884Z,53.50
2022-10-28T03:03:45.378Z,43.88
2022-10-28T03:06:08.093Z,43.70
2022-10-28T03:08:30.424Z,61.90
2022-10-28T03:10:52.793Z,51.00
2022-10-28T03:13:15.093Z,41.55
2022-10-28T03:15:37.465Z,36.47
2022-10-28T03:17:59.813Z,56.47
2022-10-28T03:20:22.186Z,47.23
2022-10-28T03:22:44.504Z,39.33
2022-10-28T03:25:07.115Z,46.88
2022-10-28T03:27:29.492Z,37.53
2022-10-28T03:29:51.826Z,38.87
2022-10-28T03:32:14.349Z,39.83
2022-10-28T03:34:36.763Z,45.85
2022-10-28T03:36:59.171Z,50.67
2022-10-28T03:39:21.524Z,46.92
2022-10-28T03:41:43.936Z,41.72
2022-10-28T03:44:06.501Z,35.60
2022-10-28T03:46:30.114Z,38.38
2022-10-28T03:48:55.923Z,35.03
2022-10-28T03:51:18.615Z,36.73
2022-10-28T03:53:40.962Z,40.15
2022-10-28T03:56:03.393Z,48.67
2022-10-28T03:58:25.872Z,62.33
2022-10-28T04:00:49.875Z,37.70
2022-10-28T04:03:12.249Z,53.35
2022-10-28T04:05:34.589Z,36.90
2022-10-28T04:07:56.980Z,52.42
2022-10-28T04:10:19.315Z,54.07
2022-10-28T04:12:41.693Z,57.33
2022-10-28T04:15:04.478Z,42.20
2022-10-28T04:17:26.814Z,42.72
2022-10-28T04:19:49.193Z,44.20
2022-10-28T04:22:11.494Z,38.20
2022-10-28T04:24:33.885Z,74.30
2022-10-28T04:26:56.246Z,46.87
2022-10-28T04:29:19.455Z,36.63
2022-10-28T04:31:41.802Z,82.72
2022-10-28T04:34:04.143Z,42.28
2022-10-28T04:36:26.530Z,43.22
2022-10-28T04:38:50.143Z,34.40
2022-10-28T04:41:13.761Z,41.80
2022-10-28T04:43:36.111Z,36.17
2022-10-28T04:45:58.813Z,52.80
2022-10-28T04:48:21.443Z,44.40
2022-10-28T04:50:43.922Z,44.00
2022-10-28T04:53:06.286Z,54.08
2022-10-28T04:55:28.674Z,97.47
2022-10-28T04:57:59.683Z,37.13
2022-10-28T05:00:22.500Z,37.45
2022-10-28T05:02:46.142Z,48.15
2022-10-28T05:05:09.327Z,49.13
2022-10-28T05:07:31.739Z,43.78
2022-10-28T05:09:54.066Z,39.10
2022-10-28T05:12:16.450Z,38.60
2022-10-28T05:14:38.800Z,71.72
2022-10-28T05:17:01.215Z,50.70
2022-10-28T05:19:23.556Z,55.20
2022-10-28T05:21:45.917Z,44.67
2022-10-28T05:24:08.526Z,67.27
2022-10-28T05:26:30.906Z,39.08
2022-10-28T05:28:53.290Z,43.30
2022-10-28T05:31:15.642Z,47.25
2022-10-28T05:33:38.038Z,39.22
2022-10-28T05:36:00.538Z,49.70
2022-10-28T05:38:22.934Z,62.70
2022-10-28T05:40:45.284Z,72.63
2022-10-28T05:43:09.438Z,61.70
2022-10-28T05:45:31.894Z,65.32
2022-10-28T05:47:54.386Z,59.50
2022-10-28T05:50:18.614Z,51.35
2022-10-28T05:52:41.112Z,63.72
2022-10-28T05:55:03.505Z,93.65
2022-10-28T05:57:25.821Z,50.63
2022-10-28T05:59:48.221Z,77.47
2022-10-28T06:02:15.113Z,63.87
2022-10-28T06:04:37.432Z,51.30
2022-10-28T06:06:59.843Z,67.32
2022-10-28T06:09:22.421Z,54.07
2022-10-28T06:11:43.291Z,57.67
2022-10-28T06:14:05.727Z,57.83
2022-10-28T06:16:28.087Z,64.70
2022-10-28T06:18:50.453Z,74.30
2022-10-28T06:21:13.165Z,77.75
2022-10-28T06:23:35.574Z,86.70
2022-10-28T06:25:59.288Z,63.20
2022-10-28T06:28:21.744Z,73.43
2022-10-28T06:30:44.102Z,83.57
2022-10-28T06:33:06.493Z,126.30
2022-10-28T06:35:28.814Z,84.90
2022-10-28T06:37:57.409Z,89.80
2022-10-28T06:40:19.761Z,56.35
2022-10-28T06:42:42.205Z,44.07
2022-10-28T06:45:05.599Z,47.13
2022-10-28T06:49:51.824Z,46.03
2022-10-28T06:52:14.223Z,57.27
2022-10-28T06:54:36.628Z,53.30
2022-10-28T06:56:59.002Z,52.97
2022-10-28T06:59:21.426Z,51.50
2022-10-28T07:01:43.908Z,51.03
2022-10-28T07:04:08.220Z,55.45
2022-10-28T07:06:30.586Z,50.95
2022-10-28T07:08:52.993Z,53.27
2022-10-28T07:11:15.428Z,45.03
2022-10-28T07:13:37.857Z,51.08
2022-10-28T07:16:00.790Z,50.57
2022-10-28T07:18:24.526Z,56.00
2022-10-28T07:20:47.109Z,49.90
2022-10-28T07:23:09.466Z,58.95
2022-10-28T07:25:32.057Z,55.07
2022-10-28T07:27:54.940Z,47.75
2022-10-28T07:30:17.624Z,52.10
2022-10-28T07:32:40.053Z,52.38
2022-10-28T07:35:02.460Z,54.87
2022-10-28T07:37:24.813Z,54.40
2022-10-28T07:39:47.223Z,50.58
2022-10-28T07:42:09.709Z,52.47
2022-10-28T07:44:32.128Z,53.65
2022-10-28T07:46:57.954Z,59.97
2022-10-28T07:49:20.779Z,49.22
2022-10-28T07:51:43.258Z,52.80
2022-10-28T07:54:05.719Z,55.22
2022-10-28T07:56:28.199Z,46.57
2022-10-28T07:58:50.705Z,47.33
2022-10-28T08:01:15.344Z,48.10
2022-10-28T08:03:38.856Z,52.45
2022-10-28T08:06:03.480Z,48.10
2022-10-28T08:08:25.876Z,47.83
2022-10-28T08:10:48.211Z,51.27
2022-10-28T08:13:11.491Z,43.73
2022-10-28T08:17:57.611Z,41.55
2022-10-28T08:20:20.153Z,44.10
2022-10-28T08:22:42.517Z,36.80
2022-10-28T08:25:05.337Z,37.70
2022-10-28T08:27:27.761Z,41.45
2022-10-28T08:29:50.157Z,36.22
2022-10-28T08:32:12.553Z,38.40
2022-10-28T08:34:37.952Z,40.73
2022-10-28T08:37:03.368Z,38.63
2022-10-28T08:39:25.750Z,36.55
2022-10-28T08:41:55.789Z,42.50
2022-10-28T08:44:53.438Z,46.67
2022-10-28T08:47:56.128Z,34.45
2022-10-28T08:50:20.818Z,33.10
2022-10-28T08:52:59.675Z,41.25
2022-10-28T08:55:44.683Z,33.20
2022-10-28T08:58:13.457Z,37.40
2022-10-28T09:00:35.907Z,34.33
2022-10-28T09:03:23.347Z,30.77
2022-10-28T09:05:50.635Z,29.05
2022-10-28T09:08:28.869Z,35.17
2022-10-28T09:10:59.040Z,26.30
2022-10-28T09:13:24.119Z,25.80
2022-10-28T09:15:57.537Z,24.05
2022-10-28T09:20:57.551Z,23.92
2022-10-28T09:23:30.968Z,26.73
2022-10-28T09:28:26.259Z,22.17
2022-10-28T09:31:12.642Z,26.27
2022-10-28T09:33:34.885Z,22.75
2022-10-28T09:35:57.295Z,21.60
2022-10-28T09:38:31.769Z,18.80
2022-10-28T09:41:20.044Z,19.95
2022-10-28T09:43:53.153Z,19.85
2022-10-28T09:46:16.830Z,21.20
2022-10-28T09:48:50.293Z,20.83
2022-10-28T09:54:05.990Z,22.88
2022-10-28T09:56:29.290Z,20.38
2022-10-28T09:58:52.264Z,25.08
2022-10-28T10:01:15.641Z,18.33
2022-10-28T10:03:40.097Z,18.80
2022-10-28T10:06:13.851Z,18.33
2022-10-28T10:08:37.577Z,23.90
2022-10-28T10:11:19.645Z,18.60
2022-10-28T10:13:42.567Z,17.60
2022-10-28T10:16:45.427Z,18.95
2022-10-28T10:19:09.666Z,18.48
2022-10-28T10:21:50.505Z,19.65
2022-10-28T10:24:31.355Z,18.63
2022-10-28T10:26:53.826Z,21.77
2022-10-28T10:29:16.146Z,16.73
2022-10-28T10:31:38.460Z,19.95
2022-10-28T10:34:00.794Z,19.23
2022-10-28T10:36:28.755Z,18.47
2022-10-28T10:38:58.457Z,18.05
2022-10-28T10:41:56.449Z,17.65
2022-10-28T10:44:21.756Z,18.60
2022-10-28T10:46:44.184Z,22.00
2022-10-28T10:49:12.815Z,16.37
2022-10-28T10:51:37.460Z,16.30
2022-10-28T10:54:02.512Z,19.33
2022-10-28T10:56:33.857Z,27.17
2022-10-28T10:59:01.557Z,18.58
2022-10-28T11:01:26.857Z,20.75
2022-10-28T11:06:24.874Z,16.73
2022-10-28T11:08:47.378Z,22.17
2022-10-28T11:11:39.990Z,16.53
2022-10-28T11:14:07.162Z,19.27
2022-10-28T11:16:29.521Z,22.73
2022-10-28T11:18:52.800Z,20.20
2022-10-28T11:24:04.748Z,22.42
2022-10-28T11:26:27.068Z,24.55
2022-10-28T11:29:10.409Z,25.90
2022-10-28T11:31:39.794Z,23.77
2022-10-28T11:34:11.114Z,24.20
2022-10-28T11:36:39.610Z,20.15
2022-10-28T11:39:56.058Z,25.40
2022-10-28T11:42:41.781Z,24.00
2022-10-28T11:45:17.759Z,22.80
2022-10-28T11:47:57.360Z,22.27
2022-10-28T11:50:49.323Z,21.05
2022-10-28T11:53:37.270Z,25.02
2022-10-28T11:56:25.553Z,25.63
2022-10-28T11:59:06.638Z,24.30
2022-10-28T12:02:13.583Z,21.02
2022-10-28T12:05:23.708Z,19.15
2022-10-28T12:07:52.789Z,27.45
2022-10-28T12:10:54.270Z,23.58
2022-10-28T12:13:30.298Z,25.80
2022-10-28T12:16:43.430Z,29.63
2022-10-28T12:19:28.448Z,25.50
2022-10-28T12:22:05.863Z,27.90
2022-10-28T12:24:28.397Z,31.63
2022-10-28T12:27:02.836Z,30.45
2022-10-28T12:29:52.516Z,22.17
2022-10-28T12:32:21.862Z,25.02
2022-10-28T12:34:59.712Z,22.92
2022-10-28T12:37:24.771Z,20.88
2022-10-28T12:40:08.147Z,20.65
2022-10-28T12:42:37.327Z,22.52
2022-10-28T12:45:00.815Z,22.10
2022-10-28T12:48:05.500Z,24.77
2022-10-28T12:50:42.991Z,22.23
2022-10-28T12:53:05.224Z,27.88
2022-10-28T12:55:59.550Z,24.98
2022-10-28T12:58:36.673Z,21.73
2022-10-28T13:01:10.420Z,19.38
2022-10-28T13:03:33.052Z,24.75
2022-10-28T13:06:19.797Z,21.40
2022-10-28T13:09:21.444Z,25.50
2022-10-28T13:12:39.911Z,20.15
2022-10-28T13:15:15.119Z,25.15
2022-10-28T13:17:48.077Z,30.02
2022-10-28T13:20:46.111Z,25.30
2022-10-28T13:24:17.321Z,22.33
2022-10-28T13:26:42.683Z,21.45
2022-10-28T13:29:07.441Z,21.33
2022-10-28T13:31:44.291Z,17.65
2022-10-28T13:34:06.643Z,20.70
2022-10-28T13:36:36.333Z,24.70
2022-10-28T13:39:01.019Z,24.45
2022-10-28T13:41:42.069Z,17.90
2022-10-28T13:46:57.289Z,21.02
2022-10-28T13:49:26.620Z,23.45
2022-10-28T13:51:51.178Z,19.35
2022-10-28T13:54:30.515Z,17.48
2022-10-28T13:56:52.949Z,21.70
2022-10-28T13:59:15.325Z,20.30
2022-10-28T14:01:39.745Z,20.20
2022-10-28T14:04:06.357Z,14.52
2022-10-28T14:06:33.115Z,19.25
2022-10-28T14:08:55.536Z,17.65
2022-10-28T14:11:33.031Z,15.93
2022-10-28T14:13:56.767Z,18.70
2022-10-28T14:16:34.892Z,17.10
2022-10-28T14:19:11.164Z,21.98
2022-10-28T14:22:06.288Z,19.00
2022-10-28T14:24:42.479Z,20.58
2022-10-28T14:27:12.619Z,17.30
2022-10-28T14:29:50.970Z,19.75
2022-10-28T14:32:31.812Z,20.63
2022-10-28T14:34:54.150Z,20.38
2022-10-28T14:37:41.844Z,20.47
2022-10-28T14:40:24.573Z,18.02
2022-10-28T14:42:58.846Z,18.38
2022-10-28T14:45:40.925Z,23.23
2022-10-28T14:48:35.253Z,18.85
2022-10-28T14:50:57.585Z,19.10
2022-10-28T14:53:22.665Z,20.50
2022-10-28T14:55:49.205Z,28.73
2022-10-28T14:58:14.445Z,19.50
2022-10-28T15:00:36.786Z,23.85
2022-10-28T15:02:59.120Z,23.67
2022-10-28T15:05:23.453Z,20.67
2022-10-28T15:07:45.810Z,19.90
2022-10-28T15:10:28.664Z,18.40
2022-10-28T15:12:51.360Z,24.43
2022-10-28T15:15:35.227Z,23.60
2022-10-28T15:17:58.594Z,20.23
2022-10-28T15:20:33.345Z,20.52
2022-10-28T15:23:23.037Z,18.95
2022-10-28T15:25:45.677Z,17.73
2022-10-28T15:28:12.904Z,21.13
2022-10-28T15:30:36.102Z,20.67
2022-10-28T15:35:41.072Z,21.63
2022-10-28T15:38:31.105Z,23.27
2022-10-28T15:40:53.450Z,24.23
2022-10-28T15:43:21.229Z,18.47
2022-10-28T15:45:43.627Z,22.05
2022-10-28T15:48:12.536Z,21.53
2022-10-28T15:50:36.325Z,20.05
2022-10-28T15:53:08.472Z,28.80
2022-10-28T15:55:41.583Z,27.88
2022-10-28T15:58:19.315Z,20.83
2022-10-28T16:00:55.911Z,20.30
2022-10-28T16:03:47.723Z,19.17
2022-10-28T16:06:31.710Z,15.77
2022-10-28T16:09:32.284Z,29.52
2022-10-28T16:11:57.581Z,25.73
2022-10-28T16:14:32.484Z,27.20
2022-10-28T16:16:54.882Z,22.80
2022-10-28T16:19:30.462Z,28.67
2022-10-28T16:21:52.971Z,27.38
2022-10-28T16:24:15.339Z,24.17
2022-10-28T16:26:37.724Z,22.33
2022-10-28T16:29:00.151Z,30.37
2022-10-28T16:31:23.962Z,25.23
2022-10-28T16:33:46.311Z,29.45
2022-10-28T16:36:09.095Z,21.50
2022-10-28T16:38:31.573Z,24.10
2022-10-28T16:40:54.158Z,23.17
2022-10-28T16:43:18.184Z,21.50
2022-10-28T16:45:40.577Z,27.05
2022-10-28T16:48:02.902Z,23.17
2022-10-28T16:50:25.297Z,25.30
2022-10-28T16:52:47.635Z,27.07
2022-10-28T16:55:16.815Z,25.90
2022-10-28T16:57:39.138Z,23.38
2022-10-28T17:00:01.479Z,23.80
2022-10-28T17:02:32.986Z,20.63
2022-10-28T17:04:55.978Z,26.83
2022-10-28T17:07:18.502Z,22.10
2022-10-28T17:09:41.608Z,25.98
2022-10-28T17:12:04.008Z,28.65
2022-10-28T17:14:26.567Z,21.07
2022-10-28T17:16:48.925Z,21.35
2022-10-28T17:19:11.309Z,28.57
2022-10-28T17:21:33.650Z,29.37
2022-10-28T17:23:56.004Z,31.00
2022-10-28T17:26:18.391Z,21.80
2022-10-28T17:28:40.740Z,27.57
2022-10-28T17:31:04.616Z,22.53
2022-10-28T17:33:26.991Z,21.92
2022-10-28T17:35:49.381Z,22.57
2022-10-28T17:38:11.760Z,24.47
2022-10-28T17:40:34.196Z,26.85
2022-10-28T17:42:58.672Z,21.07
2022-10-28T17:45:22.097Z,35.53
2022-10-28T17:47:44.804Z,30.58
2022-10-28T17:50:07.808Z,25.05
2022-10-28T17:52:34.140Z,30.23
2022-10-28T17:54:59.841Z,27.73
2022-10-28T17:57:22.251Z,26.43
2022-10-28T17:59:44.720Z,21.03
2022-10-28T18:02:07.231Z,31.27
2022-10-28T18:04:30.486Z,24.90
2022-10-28T18:06:54.765Z,24.45
2022-10-28T18:09:17.158Z,22.90
2022-10-28T18:11:40.030Z,20.90
2022-10-28T18:14:04.379Z,32.22
2022-10-28T18:16:30.166Z,24.20
2022-10-28T18:18:53.886Z,26.92
2022-10-28T18:21:16.283Z,28.52
2022-10-28T18:23:38.986Z,27.10
2022-10-28T18:26:19.634Z,22.55
2022-10-28T18:28:43.344Z,26.58
2022-10-28T18:31:14.290Z,24.50
2022-10-28T18:33:36.775Z,29.80
2022-10-28T18:36:03.173Z,23.73
2022-10-28T18:38:25.566Z,25.58
2022-10-28T18:40:47.922Z,26.33
2022-10-28T18:43:10.287Z,24.83
2022-10-28T18:45:32.613Z,25.93
2022-10-28T18:47:55.296Z,26.63
2022-10-28T18:50:17.909Z,23.10
2022-10-28T18:52:40.235Z,25.50
2022-10-28T18:55:02.612Z,28.70
2022-10-28T18:57:24.975Z,20.60
2022-10-28T19:00:16.728Z,30.10
2022-10-28T19:02:29.906Z,24.83
2022-10-28T19:04:52.381Z,24.02
2022-10-28T19:07:14.725Z,27.87
2022-10-28T19:09:37.093Z,25.15
2022-10-28T19:11:59.498Z,26.42
2022-10-28T19:14:21.827Z,29.63
2022-10-28T19:16:44.187Z,27.00
2022-10-28T19:19:07.109Z,24.30
2022-10-28T19:21:29.734Z,33.05
2022-10-28T19:23:52.148Z,34.20
2022-10-28T19:26:14.554Z,30.97
2022-10-28T19:28:41.516Z,28.70
2022-10-28T19:31:04.863Z,29.98
2022-10-28T19:35:50.487Z,29.52
2022-10-28T19:38:12.866Z,36.45
2022-10-28T19:40:35.218Z,26.80
2022-10-28T19:42:57.878Z,30.10
2022-10-28T19:45:20.519Z,33.53
2022-10-28T19:47:42.859Z,36.25
2022-10-28T19:50:05.794Z,35.47
2022-10-28T19:52:28.170Z,35.03
2022-10-28T19:54:50.577Z,32.63
2022-10-28T19:59:40.167Z,26.10
2022-10-28T20:02:02.652Z,27.88
2022-10-28T20:04:25.256Z,23.95
2022-10-28T20:06:47.655Z,25.98
2022-10-28T20:09:10.088Z,21.27
2022-10-28T20:11:34.772Z,23.13
2022-10-28T20:14:01.034Z,21.90
2022-10-28T20:16:23.918Z,25.52
2022-10-28T20:18:46.457Z,25.23
2022-10-28T20:21:14.260Z,23.15
2022-10-28T20:23:36.791Z,21.77
2022-10-28T20:25:59.944Z,22.80
2022-10-28T20:28:22.777Z,26.90
2022-10-28T20:30:54.822Z,22.42
2022-10-28T20:33:17.194Z,23.40
2022-10-28T20:35:39.519Z,28.00
2022-10-28T20:38:02.023Z,20.10
2022-10-28T20:40:24.513Z,25.42
2022-10-28T20:42:46.991Z,23.23
2022-10-28T20:45:09.808Z,24.25
2022-10-28T20:47:32.301Z,20.92
2022-10-28T20:49:54.663Z,29.20
2022-10-28T20:52:17.079Z,24.40
2022-10-28T20:54:39.485Z,28.98
2022-10-28T20:57:01.831Z,25.63
2022-10-28T20:59:24.435Z,22.03
2022-10-28T21:01:47.046Z,22.00
2022-10-28T21:04:11.009Z,24.08
2022-10-28T21:06:33.594Z,24.98
2022-10-28T21:08:56.657Z,19.50
2022-10-28T21:11:20.155Z,27.17
2022-10-28T21:13:42.667Z,22.02
2022-10-28T21:16:09.795Z,22.42
2022-10-28T21:18:32.606Z,23.80
2022-10-28T21:20:58.908Z,28.05
2022-10-28T21:23:22.520Z,26.38
2022-10-28T21:25:54.854Z,22.67
2022-10-28T21:28:17.232Z,39.58
2022-10-28T21:30:39.586Z,22.60
2022-10-28T21:33:02.879Z,20.80
2022-10-28T21:37:49.250Z,18.58
2022-10-28T21:40:12.457Z,25.92
2022-10-28T21:42:34.845Z,23.35
2022-10-28T21:44:57.284Z,21.37
2022-10-28T21:52:05.804Z,28.50
2022-10-28T21:54:28.202Z,24.35
2022-10-28T21:56:50.877Z,24.77
2022-10-28T21:59:13.286Z,18.27
2022-10-28T22:01:37.111Z,23.40
2022-10-28T22:03:59.607Z,18.38
2022-10-28T22:06:22.271Z,21.33
2022-10-28T22:08:44.977Z,28.75
2022-10-28T22:11:18.494Z,29.17
2022-10-28T22:16:07.246Z,20.23
2022-10-28T22:18:29.948Z,18.52
2022-10-28T22:20:52.324Z,22.75
2022-10-28T22:23:14.650Z,23.27
2022-10-28T22:25:36.992Z,23.67
2022-10-28T22:27:59.373Z,25.73
2022-10-28T22:30:21.702Z,25.97
2022-10-28T22:32:44.079Z,24.87
2022-10-28T22:35:07.314Z,21.07
2022-10-28T22:37:29.666Z,33.75
2022-10-28T22:39:52.042Z,16.73
2022-10-28T22:42:14.423Z,25.10
2022-10-28T22:44:36.798Z,24.67
2022-10-28T22:49:26.383Z,23.10
2022-10-28T22:51:49.810Z,20.02
2022-10-28T22:54:12.177Z,20.95
2022-10-28T22:56:34.612Z,24.87
2022-10-28T22:58:59.707Z,20.73
2022-10-28T23:01:22.469Z,23.23
2022-10-28T23:03:47.767Z,23.98
2022-10-28T23:06:10.623Z,21.38
2022-10-28T23:08:33.175Z,22.33
2022-10-28T23:10:55.589Z,18.67
2022-10-28T23:13:17.934Z,19.87
2022-10-28T23:15:40.333Z,26.67
2022-10-28T23:18:02.675Z,20.13
2022-10-28T23:20:25.521Z,26.17
2022-10-28T23:22:48.382Z,20.30
2022-10-28T23:25:10.744Z,20.35
2022-10-28T23:27:33.108Z,25.87
2022-10-28T23:29:55.525Z,29.10
2022-10-28T23:32:17.869Z,21.57
2022-10-28T23:34:40.226Z,27.57
2022-10-28T23:37:02.618Z,17.70
2022-10-28T23:39:24.962Z,17.53
2022-10-28T23:41:48.067Z,26.53
2022-10-28T23:44:10.465Z,27.52
2022-10-28T23:46:36.596Z,27.37
2022-10-28T23:49:00.024Z,25.15
2022-10-28T23:51:22.376Z,22.37
2022-10-28T23:53:44.746Z,24.47
2022-10-28T23:56:07.567Z,29.07
2022-10-28T23:58:30.086Z,22.92
